Tropical Cyclones
[Index]
Main Index Home Page Stock Weather Photos Extreme Storms Discussion Storm News and Storm Chasing Reports Tropical Cyclones / Hurricanes / Typhoons Weather Data and Links Wild Fires / Bushfires Weather Observation Techniques Weather Picture Catalogue Tornado Pictures and Reports Stock Video Footage and DVDs for sale
Season 1988-1989 Tropical Cyclone 198889_13 Track Map
Season 1988-1989 Summaries: [BoM-AU] [JTWC-AU] [JTWC-SIO] [JTWC-SPAC] [JTWC-SH]
<<- Previous TC | BoM 1988-1989 Season | Next TC ->>

click for intensity scale information  Lat/long Grid: Show Hide

 Date Labels: Show Hide

Bureau of Meteorology Tropical Cyclone Data

Name: 198889_13
Number: 719 / 198889_13

05 Nov 1988 06:00 UTC to 20 Nov 1988 12:00 UTC

    date/time    lat    long    hPa   cat  kts
1988-11-05 06    8.4    99.5                25          
1988-11-05 12    8.4    99.7                25          
1988-11-05 18    8.7    99.7                25          
1988-11-06 00    8.7    99.5                25          
1988-11-06 06    8.1    99.3                25          
1988-11-06 12    7.5    99.2                25          
1988-11-06 18    7.3    99.3                25          
1988-11-07 00    7.4    99.1                25          
1988-11-07 06    7.3    98.2                25          
1988-11-07 12    7.2    97.6                25          
1988-11-07 18    7.1    97.3                25          
1988-11-08 00    7.1    96.8                30          
1988-11-08 06    6.9    96.3                40          
1988-11-08 12    6.9    95.9                45          
1988-11-08 18    6.9    95.4                50          
1988-11-09 00    6.9    94.9                50          
1988-11-09 06    6.9    94.5                50          
1988-11-09 12    6.7    94.1                50          
1988-11-09 18    6.5    93.6                50          
1988-11-10 00    6.3    93.0                50          
1988-11-10 06    6.1    92.6                50          
1988-11-10 12    6.1    92.2                50          
1988-11-10 18    6.1    91.8                50          
1988-11-11 00    6.1    91.2                50          
1988-11-11 06    6.2    90.6                50          
1988-11-11 12    6.4    90.1                50          
1988-11-11 18    6.5    89.3                56          
1988-11-12 00    6.7    88.4                60          
1988-11-12 06    7.1    87.4                60          
1988-11-12 12    7.3    86.6                60          
1988-11-12 18    7.6    85.9                60          
1988-11-13 00    7.9    85.3                60          
1988-11-13 06    8.5    84.6                60          
1988-11-13 12    9.2    83.7                60          
1988-11-13 18    9.7    82.6                60          
1988-11-14 00   10.1    81.1                60          
1988-11-14 06   10.3    79.8                65          
1988-11-14 12   10.4    78.9                70          
1988-11-14 18   10.6    78.2                75          
1988-11-15 00   11.0    77.1                80          
1988-11-15 06   11.5    75.9                80          
1988-11-15 12   12.1    75.0                80          
1988-11-15 18   12.6    74.1                80          
1988-11-16 00   12.9    73.4                90          
1988-11-16 06   13.4    72.4                90          
1988-11-16 12   13.8    71.8                90          
1988-11-16 18   14.1    71.4                85          
1988-11-17 00   14.4    71.0                85          
1988-11-17 06   14.7    70.4                85          
1988-11-17 12   15.1    69.8                90          
1988-11-17 18   15.4    69.4                90          
1988-11-18 00   15.7    68.9                85          
1988-11-18 06   15.9    68.6                80          
1988-11-18 12   16.3    68.3                80          
1988-11-18 18   16.7    68.1                80          
1988-11-19 00   17.1    67.7                75          
1988-11-19 06   17.7    67.2                55          
1988-11-19 12   17.9    66.6                45          
1988-11-19 18   18.2    66.2                40          
1988-11-20 00   18.4    65.8                35          
1988-11-20 06   18.5    65.6                30          
1988-11-20 12   18.5    65.4                25          
Winds are 10-min average.

Tropical cyclone tracks developed by Michael Bath using data from the Bureau of Meteorology and Google Maps.


[Australian Severe Weather index] [Copyright Notice] [Email Contacts] [Search This Site] [Privacy Policy]
Document: tropical_cyclone_198889_13.htm Updated: 4 April 2018